sensor_id;sensor_type;location;lat;lon;timestamp;temperature;humidity
80192;SHT31;69513;51.990;5.704;2023-07-31T00:00:21;18.6;73.4
80192;SHT31;69513;51.990;5.704;2023-07-31T00:02:52;18.6;73.8
80192;SHT31;69513;51.990;5.704;2023-07-31T00:05:25;18.6;73.6
80192;SHT31;69513;51.990;5.704;2023-07-31T00:07:54;18.6;73.6
80192;SHT31;69513;51.990;5.704;2023-07-31T00:10:25;18.6;73.6
80192;SHT31;69513;51.990;5.704;2023-07-31T00:12:54;18.6;73.6
80192;SHT31;69513;51.990;5.704;2023-07-31T00:15:27;18.6;73.7
80192;SHT31;69513;51.990;5.704;2023-07-31T00:17:57;18.6;73.8
80192;SHT31;69513;51.990;5.704;2023-07-31T00:20:27;18.6;73.9
80192;SHT31;69513;51.990;5.704;2023-07-31T00:22:56;18.6;73.8
80192;SHT31;69513;51.990;5.704;2023-07-31T00:25:26;18.6;73.8
80192;SHT31;69513;51.990;5.704;2023-07-31T00:27:57;18.6;74.1
80192;SHT31;69513;51.990;5.704;2023-07-31T00:30:27;18.6;74.2
80192;SHT31;69513;51.990;5.704;2023-07-31T00:32:56;18.6;74.3
80192;SHT31;69513;51.990;5.704;2023-07-31T00:35:26;18.6;74.4
80192;SHT31;69513;51.990;5.704;2023-07-31T00:37:58;18.6;74.6
80192;SHT31;69513;51.990;5.704;2023-07-31T00:40:29;18.6;74.8
80192;SHT31;69513;51.990;5.704;2023-07-31T00:43:00;18.6;75.2
80192;SHT31;69513;51.990;5.704;2023-07-31T00:45:32;18.6;75.5
80192;SHT31;69513;51.990;5.704;2023-07-31T00:48:03;18.6;75.8
80192;SHT31;69513;51.990;5.704;2023-07-31T00:50:35;18.6;76.1
80192;SHT31;69513;51.990;5.704;2023-07-31T00:53:05;18.6;76.6
80192;SHT31;69513;51.990;5.704;2023-07-31T00:55:35;18.6;76.8
80192;SHT31;69513;51.990;5.704;2023-07-31T00:58:06;18.6;77.1
80192;SHT31;69513;51.990;5.704;2023-07-31T01:00:37;18.6;77.4
80192;SHT31;69513;51.990;5.704;2023-07-31T01:03:07;18.6;77.7
80192;SHT31;69513;51.990;5.704;2023-07-31T01:05:45;18.6;77.8
80192;SHT31;69513;51.990;5.704;2023-07-31T01:08:33;18.6;78.1
80192;SHT31;69513;51.990;5.704;2023-07-31T01:11:05;18.6;78.3
80192;SHT31;69513;51.990;5.704;2023-07-31T01:13:37;18.6;78.4
80192;SHT31;69513;51.990;5.704;2023-07-31T01:16:07;18.6;78.5
80192;SHT31;69513;51.990;5.704;2023-07-31T01:18:37;18.6;78.5
80192;SHT31;69513;51.990;5.704;2023-07-31T01:21:22;18.6;78.5
80192;SHT31;69513;51.990;5.704;2023-07-31T01:24:20;18.6;78.5
80192;SHT31;69513;51.990;5.704;2023-07-31T01:26:57;18.7;78.3
80192;SHT31;69513;51.990;5.704;2023-07-31T01:29:38;18.7;78.3
80192;SHT31;69513;51.990;5.704;2023-07-31T01:32:12;18.7;78.1
80192;SHT31;69513;51.990;5.704;2023-07-31T01:34:45;18.7;78.3
80192;SHT31;69513;51.990;5.704;2023-07-31T01:37:15;18.7;78.0
80192;SHT31;69513;51.990;5.704;2023-07-31T01:39:46;18.7;78.1
80192;SHT31;69513;51.990;5.704;2023-07-31T01:42:17;18.7;78.0
80192;SHT31;69513;51.990;5.704;2023-07-31T01:44:47;18.7;77.9
80192;SHT31;69513;51.990;5.704;2023-07-31T01:47:17;18.7;78.1
80192;SHT31;69513;51.990;5.704;2023-07-31T01:49:47;18.7;77.8
80192;SHT31;69513;51.990;5.704;2023-07-31T01:52:17;18.7;77.7
80192;SHT31;69513;51.990;5.704;2023-07-31T01:54:47;18.7;77.9
80192;SHT31;69513;51.990;5.704;2023-07-31T01:57:16;18.8;78.0
80192;SHT31;69513;51.990;5.704;2023-07-31T01:59:46;18.8;77.7
80192;SHT31;69513;51.990;5.704;2023-07-31T02:02:16;18.8;77.8
80192;SHT31;69513;51.990;5.704;2023-07-31T02:04:47;18.8;77.8
80192;SHT31;69513;51.990;5.704;2023-07-31T02:07:16;18.8;77.7
80192;SHT31;69513;51.990;5.704;2023-07-31T02:09:46;18.8;77.3
80192;SHT31;69513;51.990;5.704;2023-07-31T02:12:17;18.8;77.6
80192;SHT31;69513;51.990;5.704;2023-07-31T02:14:47;18.8;77.4
80192;SHT31;69513;51.990;5.704;2023-07-31T02:17:16;18.8;77.7
80192;SHT31;69513;51.990;5.704;2023-07-31T02:19:46;18.8;77.9
80192;SHT31;69513;51.990;5.704;2023-07-31T02:22:15;18.8;77.6
80192;SHT31;69513;51.990;5.704;2023-07-31T02:24:46;18.7;77.0
80192;SHT31;69513;51.990;5.704;2023-07-31T02:27:16;18.7;77.6
80192;SHT31;69513;51.990;5.704;2023-07-31T02:29:45;18.7;77.9
80192;SHT31;69513;51.990;5.704;2023-07-31T02:32:15;18.7;77.7
80192;SHT31;69513;51.990;5.704;2023-07-31T02:34:44;18.6;77.9
80192;SHT31;69513;51.990;5.704;2023-07-31T02:37:14;18.6;78.1
80192;SHT31;69513;51.990;5.704;2023-07-31T02:39:43;18.6;78.1
80192;SHT31;69513;51.990;5.704;2023-07-31T02:42:14;18.6;77.8
80192;SHT31;69513;51.990;5.704;2023-07-31T02:44:44;18.6;78.1
80192;SHT31;69513;51.990;5.704;2023-07-31T02:47:13;18.6;78.0
80192;SHT31;69513;51.990;5.704;2023-07-31T02:49:43;18.6;78.1
80192;SHT31;69513;51.990;5.704;2023-07-31T02:52:13;18.6;78.3
80192;SHT31;69513;51.990;5.704;2023-07-31T02:54:43;18.6;78.3
80192;SHT31;69513;51.990;5.704;2023-07-31T02:57:13;18.7;77.9
80192;SHT31;69513;51.990;5.704;2023-07-31T02:59:44;18.7;78.0
80192;SHT31;69513;51.990;5.704;2023-07-31T03:02:14;18.7;77.1
80192;SHT31;69513;51.990;5.704;2023-07-31T03:04:44;18.7;77.6
80192;SHT31;69513;51.990;5.704;2023-07-31T03:07:15;18.7;77.7
80192;SHT31;69513;51.990;5.704;2023-07-31T03:09:45;18.7;77.7
80192;SHT31;69513;51.990;5.704;2023-07-31T03:12:15;18.7;77.4
80192;SHT31;69513;51.990;5.704;2023-07-31T03:14:45;18.7;77.4
80192;SHT31;69513;51.990;5.704;2023-07-31T03:17:16;18.6;77.5
80192;SHT31;69513;51.990;5.704;2023-07-31T03:19:45;18.6;77.2
80192;SHT31;69513;51.990;5.704;2023-07-31T03:22:17;18.6;76.9
80192;SHT31;69513;51.990;5.704;2023-07-31T03:24:46;18.6;77.3
80192;SHT31;69513;51.990;5.704;2023-07-31T03:27:16;18.6;77.5
80192;SHT31;69513;51.990;5.704;2023-07-31T03:29:45;18.6;77.4
80192;SHT31;69513;51.990;5.704;2023-07-31T03:32:17;18.6;77.0
80192;SHT31;69513;51.990;5.704;2023-07-31T03:34:48;18.6;77.0
80192;SHT31;69513;51.990;5.704;2023-07-31T03:37:18;18.6;77.3
80192;SHT31;69513;51.990;5.704;2023-07-31T03:39:47;18.6;77.1
80192;SHT31;69513;51.990;5.704;2023-07-31T03:42:18;18.6;77.2
80192;SHT31;69513;51.990;5.704;2023-07-31T03:44:48;18.6;77.1
80192;SHT31;69513;51.990;5.704;2023-07-31T03:47:18;18.6;76.9
80192;SHT31;69513;51.990;5.704;2023-07-31T03:49:48;18.6;76.9
80192;SHT31;69513;51.990;5.704;2023-07-31T03:52:18;18.6;76.9
80192;SHT31;69513;51.990;5.704;2023-07-31T03:54:48;18.6;76.9
80192;SHT31;69513;51.990;5.704;2023-07-31T03:57:17;18.6;76.8
80192;SHT31;69513;51.990;5.704;2023-07-31T03:59:47;18.6;76.9
80192;SHT31;69513;51.990;5.704;2023-07-31T04:02:16;18.6;76.8
80192;SHT31;69513;51.990;5.704;2023-07-31T04:04:47;18.6;76.8
80192;SHT31;69513;51.990;5.704;2023-07-31T04:07:18;18.6;76.8
80192;SHT31;69513;51.990;5.704;2023-07-31T04:09:48;18.6;76.9
80192;SHT31;69513;51.990;5.704;2023-07-31T04:12:19;18.6;76.6
80192;SHT31;69513;51.990;5.704;2023-07-31T04:14:51;18.6;76.3
80192;SHT31;69513;51.990;5.704;2023-07-31T04:17:20;18.6;76.1
80192;SHT31;69513;51.990;5.704;2023-07-31T04:19:51;18.6;76.1
80192;SHT31;69513;51.990;5.704;2023-07-31T04:22:20;18.5;76.4
80192;SHT31;69513;51.990;5.704;2023-07-31T04:24:50;18.5;76.4
80192;SHT31;69513;51.990;5.704;2023-07-31T04:27:19;18.5;76.0
80192;SHT31;69513;51.990;5.704;2023-07-31T04:29:49;18.5;76.4
80192;SHT31;69513;51.990;5.704;2023-07-31T04:32:19;18.5;76.6
80192;SHT31;69513;51.990;5.704;2023-07-31T04:34:51;18.5;76.5
80192;SHT31;69513;51.990;5.704;2023-07-31T04:37:20;18.5;76.6
80192;SHT31;69513;51.990;5.704;2023-07-31T04:39:50;18.5;76.5
80192;SHT31;69513;51.990;5.704;2023-07-31T04:42:20;18.5;76.6
80192;SHT31;69513;51.990;5.704;2023-07-31T04:44:49;18.5;76.3
80192;SHT31;69513;51.990;5.704;2023-07-31T04:47:20;18.5;76.4
80192;SHT31;69513;51.990;5.704;2023-07-31T04:49:51;18.5;76.0
80192;SHT31;69513;51.990;5.704;2023-07-31T04:52:20;18.5;76.2
80192;SHT31;69513;51.990;5.704;2023-07-31T04:54:50;18.5;76.3
80192;SHT31;69513;51.990;5.704;2023-07-31T04:57:20;18.5;76.2
80192;SHT31;69513;51.990;5.704;2023-07-31T04:59:50;18.5;76.2
80192;SHT31;69513;51.990;5.704;2023-07-31T05:02:19;18.5;76.5
80192;SHT31;69513;51.990;5.704;2023-07-31T05:04:50;18.5;76.5
80192;SHT31;69513;51.990;5.704;2023-07-31T05:07:20;18.5;76.2
80192;SHT31;69513;51.990;5.704;2023-07-31T05:09:49;18.5;76.3
80192;SHT31;69513;51.990;5.704;2023-07-31T05:12:19;18.5;76.5
80192;SHT31;69513;51.990;5.704;2023-07-31T05:14:48;18.5;76.3
80192;SHT31;69513;51.990;5.704;2023-07-31T05:17:18;18.5;76.3
80192;SHT31;69513;51.990;5.704;2023-07-31T05:19:47;18.5;76.3
80192;SHT31;69513;51.990;5.704;2023-07-31T05:22:17;18.5;76.3
80192;SHT31;69513;51.990;5.704;2023-07-31T05:24:49;18.5;76.3
80192;SHT31;69513;51.990;5.704;2023-07-31T05:27:24;18.5;76.4
80192;SHT31;69513;51.990;5.704;2023-07-31T05:29:53;18.5;76.4
80192;SHT31;69513;51.990;5.704;2023-07-31T05:32:23;18.5;76.6
80192;SHT31;69513;51.990;5.704;2023-07-31T05:34:53;18.5;76.6
80192;SHT31;69513;51.990;5.704;2023-07-31T05:37:24;18.5;76.6
80192;SHT31;69513;51.990;5.704;2023-07-31T05:39:54;18.5;76.7
80192;SHT31;69513;51.990;5.704;2023-07-31T05:42:24;18.5;76.5
80192;SHT31;69513;51.990;5.704;2023-07-31T05:44:54;18.5;76.7
80192;SHT31;69513;51.990;5.704;2023-07-31T05:47:24;18.5;76.7
80192;SHT31;69513;51.990;5.704;2023-07-31T05:49:55;18.5;76.6
80192;SHT31;69513;51.990;5.704;2023-07-31T05:52:25;18.5;76.4
80192;SHT31;69513;51.990;5.704;2023-07-31T05:54:57;18.5;76.8
80192;SHT31;69513;51.990;5.704;2023-07-31T05:57:26;18.5;76.9
80192;SHT31;69513;51.990;5.704;2023-07-31T05:59:56;18.5;76.9
80192;SHT31;69513;51.990;5.704;2023-07-31T06:02:25;18.5;77.0
80192;SHT31;69513;51.990;5.704;2023-07-31T06:04:55;18.5;77.0
80192;SHT31;69513;51.990;5.704;2023-07-31T06:07:25;18.4;77.0
80192;SHT31;69513;51.990;5.704;2023-07-31T06:09:54;18.4;77.4
80192;SHT31;69513;51.990;5.704;2023-07-31T06:12:29;18.4;77.5
80192;SHT31;69513;51.990;5.704;2023-07-31T06:14:59;18.4;77.6
80192;SHT31;69513;51.990;5.704;2023-07-31T06:17:29;18.4;77.8
80192;SHT31;69513;51.990;5.704;2023-07-31T06:19:59;18.4;78.1
80192;SHT31;69513;51.990;5.704;2023-07-31T06:22:28;18.4;78.2
80192;SHT31;69513;51.990;5.704;2023-07-31T06:24:59;18.4;78.2
80192;SHT31;69513;51.990;5.704;2023-07-31T06:27:29;18.4;78.2
80192;SHT31;69513;51.990;5.704;2023-07-31T06:29:59;18.5;78.4
80192;SHT31;69513;51.990;5.704;2023-07-31T06:32:30;18.5;78.5
80192;SHT31;69513;51.990;5.704;2023-07-31T06:35:00;18.5;78.6
80192;SHT31;69513;51.990;5.704;2023-07-31T06:37:30;18.5;78.6
80192;SHT31;69513;51.990;5.704;2023-07-31T06:39:59;18.5;78.6
80192;SHT31;69513;51.990;5.704;2023-07-31T06:42:29;18.5;78.7
80192;SHT31;69513;51.990;5.704;2023-07-31T06:44:59;18.5;78.7
80192;SHT31;69513;51.990;5.704;2023-07-31T06:47:28;18.5;78.6
80192;SHT31;69513;51.990;5.704;2023-07-31T06:50:00;18.5;78.7
80192;SHT31;69513;51.990;5.704;2023-07-31T06:52:32;18.5;78.7
80192;SHT31;69513;51.990;5.704;2023-07-31T06:55:16;18.5;78.6
80192;SHT31;69513;51.990;5.704;2023-07-31T06:57:39;18.5;78.8
80192;SHT31;69513;51.990;5.704;2023-07-31T07:00:15;18.5;79.0
80192;SHT31;69513;51.990;5.704;2023-07-31T07:02:46;18.5;79.2
80192;SHT31;69513;51.990;5.704;2023-07-31T07:05:18;18.5;79.4
80192;SHT31;69513;51.990;5.704;2023-07-31T07:07:51;18.6;79.4
80192;SHT31;69513;51.990;5.704;2023-07-31T07:10:21;18.6;79.5
80192;SHT31;69513;51.990;5.704;2023-07-31T07:12:53;18.6;79.6
80192;SHT31;69513;51.990;5.704;2023-07-31T07:15:25;18.6;79.8
80192;SHT31;69513;51.990;5.704;2023-07-31T07:17:55;18.6;79.9
80192;SHT31;69513;51.990;5.704;2023-07-31T07:20:25;18.6;79.8
80192;SHT31;69513;51.990;5.704;2023-07-31T07:22:55;18.6;79.9
80192;SHT31;69513;51.990;5.704;2023-07-31T07:25:25;18.6;79.9
80192;SHT31;69513;51.990;5.704;2023-07-31T07:27:55;18.6;79.7
80192;SHT31;69513;51.990;5.704;2023-07-31T07:30:25;18.7;79.7
80192;SHT31;69513;51.990;5.704;2023-07-31T07:32:55;18.7;79.8
80192;SHT31;69513;51.990;5.704;2023-07-31T07:35:25;18.7;79.8
80192;SHT31;69513;51.990;5.704;2023-07-31T07:37:55;18.7;79.9
80192;SHT31;69513;51.990;5.704;2023-07-31T07:40:25;18.7;79.9
80192;SHT31;69513;51.990;5.704;2023-07-31T07:42:55;18.7;79.9
80192;SHT31;69513;51.990;5.704;2023-07-31T07:45:26;18.7;79.9
80192;SHT31;69513;51.990;5.704;2023-07-31T07:47:56;18.7;79.7
80192;SHT31;69513;51.990;5.704;2023-07-31T07:50:27;18.7;80.0
80192;SHT31;69513;51.990;5.704;2023-07-31T07:52:56;18.7;79.9
80192;SHT31;69513;51.990;5.704;2023-07-31T07:55:26;18.7;79.7
80192;SHT31;69513;51.990;5.704;2023-07-31T07:57:55;18.7;80.0
80192;SHT31;69513;51.990;5.704;2023-07-31T08:00:25;18.7;80.0
80192;SHT31;69513;51.990;5.704;2023-07-31T08:02:55;18.8;80.1
80192;SHT31;69513;51.990;5.704;2023-07-31T08:05:26;18.8;80.1
80192;SHT31;69513;51.990;5.704;2023-07-31T08:07:55;18.8;80.2
80192;SHT31;69513;51.990;5.704;2023-07-31T08:10:25;18.8;80.3
80192;SHT31;69513;51.990;5.704;2023-07-31T08:12:57;18.8;80.1
80192;SHT31;69513;51.990;5.704;2023-07-31T08:15:26;18.9;80.2
80192;SHT31;69513;51.990;5.704;2023-07-31T08:17:56;18.9;80.2
80192;SHT31;69513;51.990;5.704;2023-07-31T08:20:26;18.9;80.1
80192;SHT31;69513;51.990;5.704;2023-07-31T08:22:56;18.9;79.9
80192;SHT31;69513;51.990;5.704;2023-07-31T08:25:26;18.9;80.2
80192;SHT31;69513;51.990;5.704;2023-07-31T08:27:56;18.9;80.4
80192;SHT31;69513;51.990;5.704;2023-07-31T08:30:26;18.9;80.5
80192;SHT31;69513;51.990;5.704;2023-07-31T08:32:57;18.9;80.6
80192;SHT31;69513;51.990;5.704;2023-07-31T08:35:28;18.9;80.4
80192;SHT31;69513;51.990;5.704;2023-07-31T08:38:00;18.9;80.6
80192;SHT31;69513;51.990;5.704;2023-07-31T08:40:33;19.0;80.8
80192;SHT31;69513;51.990;5.704;2023-07-31T08:43:05;19.0;80.8
80192;SHT31;69513;51.990;5.704;2023-07-31T08:45:35;19.0;80.9
80192;SHT31;69513;51.990;5.704;2023-07-31T08:48:06;19.0;80.8
80192;SHT31;69513;51.990;5.704;2023-07-31T08:50:37;19.0;80.8
80192;SHT31;69513;51.990;5.704;2023-07-31T08:53:07;19.1;80.7
80192;SHT31;69513;51.990;5.704;2023-07-31T08:55:38;19.1;80.7
80192;SHT31;69513;51.990;5.704;2023-07-31T08:58:09;19.1;80.6
80192;SHT31;69513;51.990;5.704;2023-07-31T09:00:41;19.1;80.1
80192;SHT31;69513;51.990;5.704;2023-07-31T09:03:17;19.1;80.2
80192;SHT31;69513;51.990;5.704;2023-07-31T09:05:49;19.1;80.2
80192;SHT31;69513;51.990;5.704;2023-07-31T09:08:24;19.2;80.3
80192;SHT31;69513;51.990;5.704;2023-07-31T09:11:00;19.2;80.4
80192;SHT31;69513;51.990;5.704;2023-07-31T09:13:33;19.2;80.2
80192;SHT31;69513;51.990;5.704;2023-07-31T09:16:04;19.2;80.3
80192;SHT31;69513;51.990;5.704;2023-07-31T09:18:54;19.2;80.2
80192;SHT31;69513;51.990;5.704;2023-07-31T09:21:29;19.2;80.2
80192;SHT31;69513;51.990;5.704;2023-07-31T09:23:59;19.2;80.1
80192;SHT31;69513;51.990;5.704;2023-07-31T09:26:35;19.2;80.3
80192;SHT31;69513;51.990;5.704;2023-07-31T09:29:07;19.2;80.6
80192;SHT31;69513;51.990;5.704;2023-07-31T09:31:43;19.2;80.5
80192;SHT31;69513;51.990;5.704;2023-07-31T09:34:13;19.2;80.2
80192;SHT31;69513;51.990;5.704;2023-07-31T09:36:45;19.2;80.1
80192;SHT31;69513;51.990;5.704;2023-07-31T09:39:17;19.2;80.2
80192;SHT31;69513;51.990;5.704;2023-07-31T09:41:56;19.2;80.4
80192;SHT31;69513;51.990;5.704;2023-07-31T09:44:40;19.2;80.5
80192;SHT31;69513;51.990;5.704;2023-07-31T09:47:24;19.2;80.6
80192;SHT31;69513;51.990;5.704;2023-07-31T09:49:55;19.3;80.5
80192;SHT31;69513;51.990;5.704;2023-07-31T09:52:26;19.3;81.0
80192;SHT31;69513;51.990;5.704;2023-07-31T09:54:56;19.3;80.6
80192;SHT31;69513;51.990;5.704;2023-07-31T09:57:29;19.3;80.6
80192;SHT31;69513;51.990;5.704;2023-07-31T10:00:03;19.4;80.9
80192;SHT31;69513;51.990;5.704;2023-07-31T10:02:38;19.4;80.3
80192;SHT31;69513;51.990;5.704;2023-07-31T10:05:13;19.4;80.2
80192;SHT31;69513;51.990;5.704;2023-07-31T10:07:51;19.4;80.1
80192;SHT31;69513;51.990;5.704;2023-07-31T10:10:23;19.4;80.1
80192;SHT31;69513;51.990;5.704;2023-07-31T10:12:57;19.4;79.7
80192;SHT31;69513;51.990;5.704;2023-07-31T10:15:29;19.4;79.8
80192;SHT31;69513;51.990;5.704;2023-07-31T10:18:01;19.4;79.8
80192;SHT31;69513;51.990;5.704;2023-07-31T10:20:31;19.4;80.2
80192;SHT31;69513;51.990;5.704;2023-07-31T10:23:02;19.4;80.7
80192;SHT31;69513;51.990;5.704;2023-07-31T10:25:33;19.5;80.8
80192;SHT31;69513;51.990;5.704;2023-07-31T10:28:04;19.5;80.8
80192;SHT31;69513;51.990;5.704;2023-07-31T10:30:34;19.5;80.2
80192;SHT31;69513;51.990;5.704;2023-07-31T10:33:07;19.5;79.8
80192;SHT31;69513;51.990;5.704;2023-07-31T10:35:38;19.5;80.4
80192;SHT31;69513;51.990;5.704;2023-07-31T10:38:13;19.5;80.7
80192;SHT31;69513;51.990;5.704;2023-07-31T10:40:44;19.6;80.7
80192;SHT31;69513;51.990;5.704;2023-07-31T10:43:25;19.6;80.7
80192;SHT31;69513;51.990;5.704;2023-07-31T10:45:58;19.6;80.1
80192;SHT31;69513;51.990;5.704;2023-07-31T10:48:34;19.6;80.3
80192;SHT31;69513;51.990;5.704;2023-07-31T10:51:11;19.6;80.3
80192;SHT31;69513;51.990;5.704;2023-07-31T10:53:43;19.7;80.5
80192;SHT31;69513;51.990;5.704;2023-07-31T10:56:12;19.7;80.2
80192;SHT31;69513;51.990;5.704;2023-07-31T10:59:02;19.7;80.5
80192;SHT31;69513;51.990;5.704;2023-07-31T11:01:51;19.7;80.6
80192;SHT31;69513;51.990;5.704;2023-07-31T11:04:27;19.8;80.5
80192;SHT31;69513;51.990;5.704;2023-07-31T11:07:00;19.8;80.2
80192;SHT31;69513;51.990;5.704;2023-07-31T11:09:33;19.8;80.0
80192;SHT31;69513;51.990;5.704;2023-07-31T11:12:08;19.9;79.9
80192;SHT31;69513;51.990;5.704;2023-07-31T11:14:39;19.9;79.6
80192;SHT31;69513;51.990;5.704;2023-07-31T11:17:12;19.9;80.1
80192;SHT31;69513;51.990;5.704;2023-07-31T11:19:41;19.9;79.5
80192;SHT31;69513;51.990;5.704;2023-07-31T11:22:12;19.9;79.8
80192;SHT31;69513;51.990;5.704;2023-07-31T11:24:43;19.9;80.0
80192;SHT31;69513;51.990;5.704;2023-07-31T11:27:16;19.9;80.2
80192;SHT31;69513;51.990;5.704;2023-07-31T11:29:47;19.9;80.1
80192;SHT31;69513;51.990;5.704;2023-07-31T11:32:20;19.9;80.2
80192;SHT31;69513;51.990;5.704;2023-07-31T11:34:55;19.9;80.3
80192;SHT31;69513;51.990;5.704;2023-07-31T11:37:41;19.9;80.4
80192;SHT31;69513;51.990;5.704;2023-07-31T11:40:15;19.9;80.2
80192;SHT31;69513;51.990;5.704;2023-07-31T11:42:46;19.9;79.9
80192;SHT31;69513;51.990;5.704;2023-07-31T11:45:15;19.9;80.0
80192;SHT31;69513;51.990;5.704;2023-07-31T11:47:46;19.9;79.7
80192;SHT31;69513;51.990;5.704;2023-07-31T11:50:16;19.9;79.6
80192;SHT31;69513;51.990;5.704;2023-07-31T11:52:48;19.9;80.2
80192;SHT31;69513;51.990;5.704;2023-07-31T11:55:20;19.9;80.5
80192;SHT31;69513;51.990;5.704;2023-07-31T11:57:51;19.9;80.6
80192;SHT31;69513;51.990;5.704;2023-07-31T12:00:24;20.0;80.7
80192;SHT31;69513;51.990;5.704;2023-07-31T12:02:56;20.0;80.4
80192;SHT31;69513;51.990;5.704;2023-07-31T12:05:27;20.0;80.6
80192;SHT31;69513;51.990;5.704;2023-07-31T12:07:57;20.0;80.1
80192;SHT31;69513;51.990;5.704;2023-07-31T12:10:29;20.0;78.6
80192;SHT31;69513;51.990;5.704;2023-07-31T12:13:02;20.0;79.8
80192;SHT31;69513;51.990;5.704;2023-07-31T12:15:38;20.0;79.9
80192;SHT31;69513;51.990;5.704;2023-07-31T12:18:12;20.0;80.5
80192;SHT31;69513;51.990;5.704;2023-07-31T12:20:45;20.0;80.4
80192;SHT31;69513;51.990;5.704;2023-07-31T12:23:17;20.1;80.1
80192;SHT31;69513;51.990;5.704;2023-07-31T12:26:03;20.1;80.0
80192;SHT31;69513;51.990;5.704;2023-07-31T12:28:38;20.1;80.4
80192;SHT31;69513;51.990;5.704;2023-07-31T12:31:14;20.1;80.1
80192;SHT31;69513;51.990;5.704;2023-07-31T12:33:48;20.1;79.4
80192;SHT31;69513;51.990;5.704;2023-07-31T12:36:22;20.1;79.8
80192;SHT31;69513;51.990;5.704;2023-07-31T12:38:55;20.1;79.6
80192;SHT31;69513;51.990;5.704;2023-07-31T12:41:26;20.1;79.9
80192;SHT31;69513;51.990;5.704;2023-07-31T12:43:57;20.1;80.0
80192;SHT31;69513;51.990;5.704;2023-07-31T12:46:26;20.1;80.0
80192;SHT31;69513;51.990;5.704;2023-07-31T12:48:58;20.1;79.9
80192;SHT31;69513;51.990;5.704;2023-07-31T12:51:28;20.2;80.0
80192;SHT31;69513;51.990;5.704;2023-07-31T12:53:59;20.2;80.1
80192;SHT31;69513;51.990;5.704;2023-07-31T12:56:28;20.2;80.4
80192;SHT31;69513;51.990;5.704;2023-07-31T12:58:58;20.2;80.6
80192;SHT31;69513;51.990;5.704;2023-07-31T13:01:28;20.2;80.8
80192;SHT31;69513;51.990;5.704;2023-07-31T13:03:57;20.2;80.5
80192;SHT31;69513;51.990;5.704;2023-07-31T13:06:27;20.2;80.4
80192;SHT31;69513;51.990;5.704;2023-07-31T13:08:56;20.3;80.1
80192;SHT31;69513;51.990;5.704;2023-07-31T13:11:26;20.3;80.0
80192;SHT31;69513;51.990;5.704;2023-07-31T13:13:55;20.3;79.5
80192;SHT31;69513;51.990;5.704;2023-07-31T13:16:25;20.3;79.3
80192;SHT31;69513;51.990;5.704;2023-07-31T13:18:56;20.3;79.4
80192;SHT31;69513;51.990;5.704;2023-07-31T13:21:25;20.4;79.2
80192;SHT31;69513;51.990;5.704;2023-07-31T13:23:55;20.4;79.1
80192;SHT31;69513;51.990;5.704;2023-07-31T13:26:29;20.4;79.4
80192;SHT31;69513;51.990;5.704;2023-07-31T13:28:58;20.4;79.6
80192;SHT31;69513;51.990;5.704;2023-07-31T13:31:28;20.4;79.5
80192;SHT31;69513;51.990;5.704;2023-07-31T13:33:57;20.4;79.2
80192;SHT31;69513;51.990;5.704;2023-07-31T13:36:27;20.4;79.1
80192;SHT31;69513;51.990;5.704;2023-07-31T13:38:56;20.4;78.9
80192;SHT31;69513;51.990;5.704;2023-07-31T13:41:27;20.4;79.1
80192;SHT31;69513;51.990;5.704;2023-07-31T13:43:56;20.4;78.8
80192;SHT31;69513;51.990;5.704;2023-07-31T13:46:26;20.4;78.9
80192;SHT31;69513;51.990;5.704;2023-07-31T13:48:56;20.4;78.9
80192;SHT31;69513;51.990;5.704;2023-07-31T13:51:27;20.4;79.0
80192;SHT31;69513;51.990;5.704;2023-07-31T13:53:57;20.4;79.1
80192;SHT31;69513;51.990;5.704;2023-07-31T13:56:27;20.4;79.2
80192;SHT31;69513;51.990;5.704;2023-07-31T13:58:56;20.4;79.2
80192;SHT31;69513;51.990;5.704;2023-07-31T14:01:28;20.4;79.3
80192;SHT31;69513;51.990;5.704;2023-07-31T14:03:57;20.4;79.3
80192;SHT31;69513;51.990;5.704;2023-07-31T14:06:28;20.4;79.1
80192;SHT31;69513;51.990;5.704;2023-07-31T14:08:58;20.4;79.2
80192;SHT31;69513;51.990;5.704;2023-07-31T14:11:30;20.4;79.2
80192;SHT31;69513;51.990;5.704;2023-07-31T14:14:00;20.4;79.2
80192;SHT31;69513;51.990;5.704;2023-07-31T14:16:32;20.4;79.1
80192;SHT31;69513;51.990;5.704;2023-07-31T14:19:02;20.4;79.3
80192;SHT31;69513;51.990;5.704;2023-07-31T14:21:32;20.4;79.2
80192;SHT31;69513;51.990;5.704;2023-07-31T14:24:05;20.3;79.3
80192;SHT31;69513;51.990;5.704;2023-07-31T14:26:36;20.3;79.6
80192;SHT31;69513;51.990;5.704;2023-07-31T14:29:06;20.3;79.5
80192;SHT31;69513;51.990;5.704;2023-07-31T14:31:36;20.3;79.5
80192;SHT31;69513;51.990;5.704;2023-07-31T14:34:06;20.3;79.5
80192;SHT31;69513;51.990;5.704;2023-07-31T14:36:35;20.3;79.7
80192;SHT31;69513;51.990;5.704;2023-07-31T14:39:05;20.3;79.7
80192;SHT31;69513;51.990;5.704;2023-07-31T14:41:35;20.3;79.6
80192;SHT31;69513;51.990;5.704;2023-07-31T14:44:04;20.3;79.6
80192;SHT31;69513;51.990;5.704;2023-07-31T14:46:34;20.3;79.9
80192;SHT31;69513;51.990;5.704;2023-07-31T14:49:04;20.3;80.0
80192;SHT31;69513;51.990;5.704;2023-07-31T14:51:36;20.3;80.2
80192;SHT31;69513;51.990;5.704;2023-07-31T14:54:06;20.3;80.0
80192;SHT31;69513;51.990;5.704;2023-07-31T14:56:36;20.3;80.0
80192;SHT31;69513;51.990;5.704;2023-07-31T14:59:06;20.3;79.8
80192;SHT31;69513;51.990;5.704;2023-07-31T15:01:39;20.3;79.6
80192;SHT31;69513;51.990;5.704;2023-07-31T15:04:08;20.3;79.5
80192;SHT31;69513;51.990;5.704;2023-07-31T15:06:39;20.3;79.5
80192;SHT31;69513;51.990;5.704;2023-07-31T15:09:08;20.3;79.5
80192;SHT31;69513;51.990;5.704;2023-07-31T15:11:39;20.3;79.7
80192;SHT31;69513;51.990;5.704;2023-07-31T15:14:09;20.3;79.3
80192;SHT31;69513;51.990;5.704;2023-07-31T15:16:40;20.3;79.5
80192;SHT31;69513;51.990;5.704;2023-07-31T15:19:09;20.3;79.7
80192;SHT31;69513;51.990;5.704;2023-07-31T15:21:40;20.3;79.5
80192;SHT31;69513;51.990;5.704;2023-07-31T15:24:10;20.3;79.3
80192;SHT31;69513;51.990;5.704;2023-07-31T15:26:41;20.3;79.4
80192;SHT31;69513;51.990;5.704;2023-07-31T15:29:11;20.3;79.4
80192;SHT31;69513;51.990;5.704;2023-07-31T15:31:46;20.3;79.6
80192;SHT31;69513;51.990;5.704;2023-07-31T15:34:17;20.3;79.4
80192;SHT31;69513;51.990;5.704;2023-07-31T15:36:49;20.3;79.5
80192;SHT31;69513;51.990;5.704;2023-07-31T15:39:19;20.3;79.6
80192;SHT31;69513;51.990;5.704;2023-07-31T15:41:49;20.3;79.5
80192;SHT31;69513;51.990;5.704;2023-07-31T15:44:21;20.3;79.5
80192;SHT31;69513;51.990;5.704;2023-07-31T15:46:51;20.3;79.3
80192;SHT31;69513;51.990;5.704;2023-07-31T15:49:23;20.3;79.3
80192;SHT31;69513;51.990;5.704;2023-07-31T15:51:52;20.3;79.2
80192;SHT31;69513;51.990;5.704;2023-07-31T15:54:23;20.3;79.2
80192;SHT31;69513;51.990;5.704;2023-07-31T15:56:54;20.3;79.1
80192;SHT31;69513;51.990;5.704;2023-07-31T15:59:27;20.3;79.1
80192;SHT31;69513;51.990;5.704;2023-07-31T16:01:57;20.3;79.0
80192;SHT31;69513;51.990;5.704;2023-07-31T16:04:27;20.3;79.1
80192;SHT31;69513;51.990;5.704;2023-07-31T16:06:58;20.3;79.2
80192;SHT31;69513;51.990;5.704;2023-07-31T16:09:27;20.3;79.3
80192;SHT31;69513;51.990;5.704;2023-07-31T16:11:57;20.3;79.2
80192;SHT31;69513;51.990;5.704;2023-07-31T16:14:27;20.3;79.3
80192;SHT31;69513;51.990;5.704;2023-07-31T16:16:57;20.3;79.3
80192;SHT31;69513;51.990;5.704;2023-07-31T16:19:29;20.3;79.3
80192;SHT31;69513;51.990;5.704;2023-07-31T16:22:15;20.3;79.3
80192;SHT31;69513;51.990;5.704;2023-07-31T16:24:45;20.3;79.3
80192;SHT31;69513;51.990;5.704;2023-07-31T16:27:15;20.2;79.2